sensor_id;sensor_type;location;lat;lon;timestamp;pressure;altitude;pressure_sealevel;temperature;humidity
77240;BME280;66258;53.170;-2.240;2023-05-10T00:01:37;99855.34;;;17.74;100.00
77240;BME280;66258;53.170;-2.240;2023-05-10T00:04:05;99852.91;;;17.66;100.00
77240;BME280;66258;53.170;-2.240;2023-05-10T00:06:33;99856.34;;;17.55;100.00
77240;BME280;66258;53.170;-2.240;2023-05-10T00:09:00;99856.00;;;17.45;100.00
77240;BME280;66258;53.170;-2.240;2023-05-10T00:11:30;99855.50;;;17.55;100.00
77240;BME280;66258;53.170;-2.240;2023-05-10T00:13:59;99852.97;;;17.53;100.00
77240;BME280;66258;53.170;-2.240;2023-05-10T00:16:29;99848.38;;;17.47;100.00
77240;BME280;66258;53.170;-2.240;2023-05-10T00:18:57;99851.75;;;17.49;100.00
77240;BME280;66258;53.170;-2.240;2023-05-10T00:21:25;99852.13;;;17.52;100.00
77240;BME280;66258;53.170;-2.240;2023-05-10T00:23:52;99852.09;;;17.59;100.00
77240;BME280;66258;53.170;-2.240;2023-05-10T00:26:20;99842.63;;;17.30;100.00
77240;BME280;66258;53.170;-2.240;2023-05-10T00:28:48;99844.41;;;17.18;100.00
77240;BME280;66258;53.170;-2.240;2023-05-10T00:31:17;99844.63;;;17.16;100.00
77240;BME280;66258;53.170;-2.240;2023-05-10T00:33:45;99841.63;;;17.25;100.00
77240;BME280;66258;53.170;-2.240;2023-05-10T00:36:13;99844.66;;;17.10;100.00
77240;BME280;66258;53.170;-2.240;2023-05-10T00:38:41;99852.44;;;17.13;100.00
77240;BME280;66258;53.170;-2.240;2023-05-10T00:41:09;99841.94;;;17.10;100.00
77240;BME280;66258;53.170;-2.240;2023-05-10T00:43:37;99843.63;;;17.04;100.00
77240;BME280;66258;53.170;-2.240;2023-05-10T00:46:05;99842.22;;;17.02;100.00
77240;BME280;66258;53.170;-2.240;2023-05-10T00:48:34;99836.34;;;16.98;100.00
77240;BME280;66258;53.170;-2.240;2023-05-10T00:51:02;99844.94;;;17.02;100.00
77240;BME280;66258;53.170;-2.240;2023-05-10T00:53:31;99838.22;;;16.98;100.00
77240;BME280;66258;53.170;-2.240;2023-05-10T00:55:59;99845.56;;;17.04;100.00
77240;BME280;66258;53.170;-2.240;2023-05-10T00:58:29;99840.91;;;17.04;100.00
77240;BME280;66258;53.170;-2.240;2023-05-10T01:00:57;99839.06;;;16.98;100.00
77240;BME280;66258;53.170;-2.240;2023-05-10T01:03:25;99838.84;;;17.00;100.00
77240;BME280;66258;53.170;-2.240;2023-05-10T01:05:55;99829.84;;;16.93;100.00
77240;BME280;66258;53.170;-2.240;2023-05-10T01:08:24;99843.91;;;16.96;100.00
77240;BME280;66258;53.170;-2.240;2023-05-10T01:10:54;99846.94;;;17.20;100.00
77240;BME280;66258;53.170;-2.240;2023-05-10T01:13:31;99838.53;;;17.14;100.00
77240;BME280;66258;53.170;-2.240;2023-05-10T01:16:00;99834.31;;;17.18;100.00
77240;BME280;66258;53.170;-2.240;2023-05-10T01:18:41;99833.09;;;17.08;100.00
77240;BME280;66258;53.170;-2.240;2023-05-10T01:21:18;99837.69;;;17.14;100.00
77240;BME280;66258;53.170;-2.240;2023-05-10T01:24:14;99838.22;;;16.98;100.00
77240;BME280;66258;53.170;-2.240;2023-05-10T01:27:11;99835.56;;;16.84;100.00
77240;BME280;66258;53.170;-2.240;2023-05-10T01:29:59;99842.03;;;16.97;100.00
77240;BME280;66258;53.170;-2.240;2023-05-10T01:32:51;99842.34;;;16.82;100.00
77240;BME280;66258;53.170;-2.240;2023-05-10T01:35:30;99833.50;;;16.80;100.00
77240;BME280;66258;53.170;-2.240;2023-05-10T01:38:05;99830.09;;;16.84;100.00
77240;BME280;66258;53.170;-2.240;2023-05-10T01:40:39;99822.72;;;16.85;100.00
77240;BME280;66258;53.170;-2.240;2023-05-10T01:43:19;99827.84;;;16.75;100.00
77240;BME280;66258;53.170;-2.240;2023-05-10T01:45:58;99826.09;;;16.87;100.00
77240;BME280;66258;53.170;-2.240;2023-05-10T01:48:34;99821.44;;;16.94;100.00
77240;BME280;66258;53.170;-2.240;2023-05-10T01:51:02;99822.28;;;16.88;100.00
77240;BME280;66258;53.170;-2.240;2023-05-10T01:53:37;99825.84;;;16.95;100.00
77240;BME280;66258;53.170;-2.240;2023-05-10T01:56:08;99827.41;;;16.78;100.00
77240;BME280;66258;53.170;-2.240;2023-05-10T01:58:39;99825.22;;;16.93;100.00
77240;BME280;66258;53.170;-2.240;2023-05-10T02:01:11;99835.28;;;16.99;100.00
77240;BME280;66258;53.170;-2.240;2023-05-10T02:03:43;99836.41;;;16.85;100.00
77240;BME280;66258;53.170;-2.240;2023-05-10T02:06:12;99843.22;;;16.69;100.00
77240;BME280;66258;53.170;-2.240;2023-05-10T02:08:43;99844.72;;;16.59;100.00
77240;BME280;66258;53.170;-2.240;2023-05-10T02:11:14;99847.69;;;16.50;100.00
77240;BME280;66258;53.170;-2.240;2023-05-10T02:13:42;99841.38;;;16.57;100.00
77240;BME280;66258;53.170;-2.240;2023-05-10T02:16:11;99856.88;;;16.63;100.00
77240;BME280;66258;53.170;-2.240;2023-05-10T02:18:42;99839.69;;;16.56;100.00
77240;BME280;66258;53.170;-2.240;2023-05-10T02:21:10;99848.31;;;16.53;100.00
77240;BME280;66258;53.170;-2.240;2023-05-10T02:23:39;99844.53;;;16.54;100.00
77240;BME280;66258;53.170;-2.240;2023-05-10T02:26:09;99852.09;;;16.52;100.00
77240;BME280;66258;53.170;-2.240;2023-05-10T02:28:38;99851.47;;;16.49;100.00
77240;BME280;66258;53.170;-2.240;2023-05-10T02:31:08;99844.97;;;16.50;100.00
77240;BME280;66258;53.170;-2.240;2023-05-10T02:33:42;99850.63;;;16.49;100.00
77240;BME280;66258;53.170;-2.240;2023-05-10T02:36:12;99852.09;;;16.52;100.00
77240;BME280;66258;53.170;-2.240;2023-05-10T02:38:41;99856.28;;;16.54;100.00
77240;BME280;66258;53.170;-2.240;2023-05-10T02:41:11;99850.19;;;16.59;100.00
77240;BME280;66258;53.170;-2.240;2023-05-10T02:43:41;99851.66;;;16.55;100.00
77240;BME280;66258;53.170;-2.240;2023-05-10T02:46:08;99859.88;;;16.55;100.00
77240;BME280;66258;53.170;-2.240;2023-05-10T02:48:36;99855.88;;;16.57;100.00
77240;BME280;66258;53.170;-2.240;2023-05-10T02:51:07;99858.63;;;16.50;100.00
77240;BME280;66258;53.170;-2.240;2023-05-10T02:53:36;99859.03;;;16.47;100.00
77240;BME280;66258;53.170;-2.240;2023-05-10T02:56:12;99864.50;;;16.54;100.00
77240;BME280;66258;53.170;-2.240;2023-05-10T02:58:42;99859.59;;;16.63;100.00
77240;BME280;66258;53.170;-2.240;2023-05-10T03:01:14;99866.16;;;16.62;100.00
77240;BME280;66258;53.170;-2.240;2023-05-10T03:03:42;99861.50;;;16.69;100.00
77240;BME280;66258;53.170;-2.240;2023-05-10T03:06:10;99874.50;;;16.80;100.00
77240;BME280;66258;53.170;-2.240;2023-05-10T03:08:38;99867.59;;;16.77;100.00
77240;BME280;66258;53.170;-2.240;2023-05-10T03:11:17;99870.31;;;16.77;100.00
77240;BME280;66258;53.170;-2.240;2023-05-10T03:14:21;99861.53;;;16.56;100.00
77240;BME280;66258;53.170;-2.240;2023-05-10T03:16:56;99867.03;;;16.42;100.00
77240;BME280;66258;53.170;-2.240;2023-05-10T03:19:31;99860.53;;;16.43;100.00
77240;BME280;66258;53.170;-2.240;2023-05-10T03:22:10;99859.09;;;16.41;100.00
77240;BME280;66258;53.170;-2.240;2023-05-10T03:24:41;99858.06;;;16.35;100.00
77240;BME280;66258;53.170;-2.240;2023-05-10T03:27:09;99853.22;;;16.31;100.00
77240;BME280;66258;53.170;-2.240;2023-05-10T03:29:39;99864.56;;;16.41;100.00
77240;BME280;66258;53.170;-2.240;2023-05-10T03:32:07;99860.06;;;16.60;100.00
77240;BME280;66258;53.170;-2.240;2023-05-10T03:34:34;99856.47;;;16.66;100.00
77240;BME280;66258;53.170;-2.240;2023-05-10T03:37:12;99859.84;;;16.68;100.00
77240;BME280;66258;53.170;-2.240;2023-05-10T03:39:40;99856.34;;;16.92;100.00
77240;BME280;66258;53.170;-2.240;2023-05-10T03:42:07;99856.53;;;16.97;100.00
77240;BME280;66258;53.170;-2.240;2023-05-10T03:44:36;99860.22;;;17.09;100.00
77240;BME280;66258;53.170;-2.240;2023-05-10T03:47:04;99857.03;;;17.19;100.00
77240;BME280;66258;53.170;-2.240;2023-05-10T03:49:32;99856.13;;;17.25;100.00
77240;BME280;66258;53.170;-2.240;2023-05-10T03:52:00;99855.06;;;17.26;100.00
77240;BME280;66258;53.170;-2.240;2023-05-10T03:54:29;99855.91;;;17.27;100.00
77240;BME280;66258;53.170;-2.240;2023-05-10T03:56:56;99851.50;;;17.26;100.00
77240;BME280;66258;53.170;-2.240;2023-05-10T03:59:24;99850.66;;;17.25;100.00
77240;BME280;66258;53.170;-2.240;2023-05-10T04:01:52;99854.56;;;17.42;100.00
77240;BME280;66258;53.170;-2.240;2023-05-10T04:04:19;99849.44;;;17.46;100.00
77240;BME280;66258;53.170;-2.240;2023-05-10T04:06:47;99863.41;;;17.69;100.00
77240;BME280;66258;53.170;-2.240;2023-05-10T04:09:15;99867.16;;;17.75;100.00
77240;BME280;66258;53.170;-2.240;2023-05-10T04:11:45;99868.91;;;17.63;100.00
77240;BME280;66258;53.170;-2.240;2023-05-10T04:14:13;99864.72;;;17.60;100.00
77240;BME280;66258;53.170;-2.240;2023-05-10T04:16:40;99863.03;;;17.66;100.00
77240;BME280;66258;53.170;-2.240;2023-05-10T04:19:08;99864.75;;;17.53;100.00
77240;BME280;66258;53.170;-2.240;2023-05-10T04:21:36;99874.03;;;17.52;100.00
77240;BME280;66258;53.170;-2.240;2023-05-10T04:24:04;99866.03;;;17.51;100.00
77240;BME280;66258;53.170;-2.240;2023-05-10T04:26:33;99868.72;;;17.64;100.00
77240;BME280;66258;53.170;-2.240;2023-05-10T04:29:01;99864.28;;;17.63;100.00
77240;BME280;66258;53.170;-2.240;2023-05-10T04:31:29;99869.03;;;17.74;100.00
77240;BME280;66258;53.170;-2.240;2023-05-10T04:33:57;99869.84;;;17.81;100.00
77240;BME280;66258;53.170;-2.240;2023-05-10T04:36:24;99864.75;;;17.85;100.00
77240;BME280;66258;53.170;-2.240;2023-05-10T04:38:52;99865.88;;;17.77;100.00
77240;BME280;66258;53.170;-2.240;2023-05-10T04:41:20;99864.28;;;17.88;100.00
77240;BME280;66258;53.170;-2.240;2023-05-10T04:43:48;99863.81;;;17.91;100.00
77240;BME280;66258;53.170;-2.240;2023-05-10T04:46:17;99859.19;;;17.92;100.00
77240;BME280;66258;53.170;-2.240;2023-05-10T04:48:45;99865.75;;;18.09;100.00
77240;BME280;66258;53.170;-2.240;2023-05-10T04:51:12;99862.34;;;18.13;100.00
77240;BME280;66258;53.170;-2.240;2023-05-10T04:53:40;99868.06;;;18.30;100.00
77240;BME280;66258;53.170;-2.240;2023-05-10T04:56:18;99863.63;;;18.29;100.00
77240;BME280;66258;53.170;-2.240;2023-05-10T04:58:45;99863.94;;;18.58;100.00
77240;BME280;66258;53.170;-2.240;2023-05-10T05:01:15;99862.28;;;18.57;100.00
77240;BME280;66258;53.170;-2.240;2023-05-10T05:03:44;99856.38;;;18.60;100.00
77240;BME280;66258;53.170;-2.240;2023-05-10T05:06:12;99875.16;;;18.74;100.00
77240;BME280;66258;53.170;-2.240;2023-05-10T05:08:39;99862.75;;;18.72;100.00
77240;BME280;66258;53.170;-2.240;2023-05-10T05:11:06;99857.53;;;18.70;100.00
77240;BME280;66258;53.170;-2.240;2023-05-10T05:13:34;99859.31;;;18.76;100.00
77240;BME280;66258;53.170;-2.240;2023-05-10T05:16:01;99866.28;;;18.61;100.00
77240;BME280;66258;53.170;-2.240;2023-05-10T05:18:29;99872.97;;;18.28;100.00
77240;BME280;66258;53.170;-2.240;2023-05-10T05:20:58;99867.16;;;18.18;100.00
77240;BME280;66258;53.170;-2.240;2023-05-10T05:23:26;99875.31;;;18.25;100.00
77240;BME280;66258;53.170;-2.240;2023-05-10T05:25:53;99875.59;;;18.35;100.00
77240;BME280;66258;53.170;-2.240;2023-05-10T05:28:20;99880.22;;;18.59;100.00
77240;BME280;66258;53.170;-2.240;2023-05-10T05:30:48;99890.66;;;18.69;100.00
77240;BME280;66258;53.170;-2.240;2023-05-10T05:33:18;99880.72;;;18.86;100.00
77240;BME280;66258;53.170;-2.240;2023-05-10T05:35:45;99888.34;;;19.14;100.00
77240;BME280;66258;53.170;-2.240;2023-05-10T05:38:15;99886.97;;;19.53;100.00
77240;BME280;66258;53.170;-2.240;2023-05-10T05:40:42;99888.91;;;19.87;100.00
77240;BME280;66258;53.170;-2.240;2023-05-10T05:43:10;99893.44;;;20.17;100.00
77240;BME280;66258;53.170;-2.240;2023-05-10T05:45:38;99892.38;;;20.53;100.00
77240;BME280;66258;53.170;-2.240;2023-05-10T05:48:06;99903.94;;;20.78;100.00
77240;BME280;66258;53.170;-2.240;2023-05-10T05:50:33;99898.50;;;20.95;100.00
77240;BME280;66258;53.170;-2.240;2023-05-10T05:53:10;99911.31;;;20.89;100.00
77240;BME280;66258;53.170;-2.240;2023-05-10T05:55:40;99903.00;;;21.01;100.00
77240;BME280;66258;53.170;-2.240;2023-05-10T05:58:07;99904.13;;;21.29;100.00
77240;BME280;66258;53.170;-2.240;2023-05-10T06:00:38;99913.63;;;21.66;100.00
77240;BME280;66258;53.170;-2.240;2023-05-10T06:03:05;99912.47;;;21.79;98.33
77240;BME280;66258;53.170;-2.240;2023-05-10T06:05:35;99914.34;;;21.61;96.13
77240;BME280;66258;53.170;-2.240;2023-05-10T06:08:03;99909.66;;;21.17;93.94
77240;BME280;66258;53.170;-2.240;2023-05-10T06:10:32;99915.03;;;21.23;95.91
77240;BME280;66258;53.170;-2.240;2023-05-10T06:13:02;99913.94;;;21.53;94.88
77240;BME280;66258;53.170;-2.240;2023-05-10T06:15:30;99912.63;;;21.89;94.86
77240;BME280;66258;53.170;-2.240;2023-05-10T06:17:58;99910.88;;;22.33;94.51
77240;BME280;66258;53.170;-2.240;2023-05-10T06:20:26;99918.44;;;22.59;91.08
77240;BME280;66258;53.170;-2.240;2023-05-10T06:22:53;99911.53;;;22.40;89.17
77240;BME280;66258;53.170;-2.240;2023-05-10T06:25:21;99916.66;;;22.15;87.44
77240;BME280;66258;53.170;-2.240;2023-05-10T06:27:48;99923.34;;;22.19;88.39
77240;BME280;66258;53.170;-2.240;2023-05-10T06:30:23;99927.34;;;22.28;88.01
77240;BME280;66258;53.170;-2.240;2023-05-10T06:32:53;99928.50;;;22.71;88.00
77240;BME280;66258;53.170;-2.240;2023-05-10T06:35:23;99944.09;;;22.60;83.99
77240;BME280;66258;53.170;-2.240;2023-05-10T06:37:52;99937.97;;;22.19;85.12
77240;BME280;66258;53.170;-2.240;2023-05-10T06:40:19;99934.75;;;21.60;87.21
77240;BME280;66258;53.170;-2.240;2023-05-10T06:42:50;99940.41;;;21.54;88.08
77240;BME280;66258;53.170;-2.240;2023-05-10T06:45:18;99930.84;;;21.16;90.37
77240;BME280;66258;53.170;-2.240;2023-05-10T06:47:56;99941.38;;;21.08;93.10
77240;BME280;66258;53.170;-2.240;2023-05-10T06:50:24;99936.97;;;21.07;92.82
77240;BME280;66258;53.170;-2.240;2023-05-10T06:52:52;99938.16;;;21.11;92.42
77240;BME280;66258;53.170;-2.240;2023-05-10T06:55:20;99933.13;;;20.68;93.87
77240;BME280;66258;53.170;-2.240;2023-05-10T06:57:47;99937.81;;;20.44;95.58
77240;BME280;66258;53.170;-2.240;2023-05-10T07:00:16;99933.63;;;20.53;96.26
77240;BME280;66258;53.170;-2.240;2023-05-10T07:02:45;99942.47;;;20.43;97.06
77240;BME280;66258;53.170;-2.240;2023-05-10T07:05:14;99938.53;;;20.51;97.39
77240;BME280;66258;53.170;-2.240;2023-05-10T07:07:42;99936.38;;;20.41;98.18
77240;BME280;66258;53.170;-2.240;2023-05-10T07:10:12;99933.75;;;20.46;98.11
77240;BME280;66258;53.170;-2.240;2023-05-10T07:12:41;99937.88;;;20.84;97.99
77240;BME280;66258;53.170;-2.240;2023-05-10T07:15:09;99939.59;;;21.13;97.54
77240;BME280;66258;53.170;-2.240;2023-05-10T07:17:37;99931.31;;;21.25;95.58
77240;BME280;66258;53.170;-2.240;2023-05-10T07:20:06;99927.81;;;21.30;95.68
77240;BME280;66258;53.170;-2.240;2023-05-10T07:22:36;99931.31;;;21.53;94.62
77240;BME280;66258;53.170;-2.240;2023-05-10T07:25:03;99930.72;;;21.23;93.78
77240;BME280;66258;53.170;-2.240;2023-05-10T07:27:31;99935.13;;;21.24;95.24
77240;BME280;66258;53.170;-2.240;2023-05-10T07:30:01;99935.44;;;21.39;95.53
77240;BME280;66258;53.170;-2.240;2023-05-10T07:32:28;99935.47;;;21.56;95.05
77240;BME280;66258;53.170;-2.240;2023-05-10T07:34:55;99929.75;;;21.74;93.62
77240;BME280;66258;53.170;-2.240;2023-05-10T07:37:26;99935.38;;;22.13;93.78
77240;BME280;66258;53.170;-2.240;2023-05-10T07:39:56;99938.63;;;22.82;92.46
77240;BME280;66258;53.170;-2.240;2023-05-10T07:42:24;99942.09;;;22.94;88.87
77240;BME280;66258;53.170;-2.240;2023-05-10T07:44:51;99947.16;;;23.02;87.46
77240;BME280;66258;53.170;-2.240;2023-05-10T07:47:18;99942.97;;;23.21;88.12
77240;BME280;66258;53.170;-2.240;2023-05-10T07:49:47;99950.16;;;23.71;84.47
77240;BME280;66258;53.170;-2.240;2023-05-10T07:52:14;99948.19;;;23.18;84.75
77240;BME280;66258;53.170;-2.240;2023-05-10T07:54:42;99942.75;;;22.62;85.48
77240;BME280;66258;53.170;-2.240;2023-05-10T07:57:11;99941.22;;;22.00;88.66
77240;BME280;66258;53.170;-2.240;2023-05-10T07:59:39;99936.97;;;22.09;89.43
77240;BME280;66258;53.170;-2.240;2023-05-10T08:02:06;99936.53;;;22.34;89.28
77240;BME280;66258;53.170;-2.240;2023-05-10T08:04:33;99943.13;;;22.33;89.09
77240;BME280;66258;53.170;-2.240;2023-05-10T08:07:00;99931.19;;;22.27;89.52
77240;BME280;66258;53.170;-2.240;2023-05-10T08:09:30;99931.69;;;22.07;90.58
77240;BME280;66258;53.170;-2.240;2023-05-10T08:11:58;99937.72;;;22.04;91.83
77240;BME280;66258;53.170;-2.240;2023-05-10T08:14:29;99941.13;;;22.11;93.28
77240;BME280;66258;53.170;-2.240;2023-05-10T08:16:56;99945.28;;;21.97;92.88
77240;BME280;66258;53.170;-2.240;2023-05-10T08:19:25;99943.09;;;22.49;91.96
77240;BME280;66258;53.170;-2.240;2023-05-10T08:21:53;99944.75;;;22.50;91.79
77240;BME280;66258;53.170;-2.240;2023-05-10T08:24:20;99947.03;;;21.86;93.13
77240;BME280;66258;53.170;-2.240;2023-05-10T08:26:48;99942.78;;;21.79;95.17
77240;BME280;66258;53.170;-2.240;2023-05-10T08:29:15;99949.63;;;21.76;94.97
77240;BME280;66258;53.170;-2.240;2023-05-10T08:31:44;99937.41;;;21.55;96.41
77240;BME280;66258;53.170;-2.240;2023-05-10T08:34:12;99942.91;;;22.01;95.12
77240;BME280;66258;53.170;-2.240;2023-05-10T08:36:39;99946.50;;;21.56;95.28
77240;BME280;66258;53.170;-2.240;2023-05-10T08:39:07;99947.31;;;20.88;98.17
77240;BME280;66258;53.170;-2.240;2023-05-10T08:41:46;99951.38;;;20.85;99.03
77240;BME280;66258;53.170;-2.240;2023-05-10T08:44:15;99946.28;;;20.42;100.00
77240;BME280;66258;53.170;-2.240;2023-05-10T08:46:46;99945.91;;;20.62;100.00
77240;BME280;66258;53.170;-2.240;2023-05-10T08:49:16;99948.22;;;20.42;100.00
77240;BME280;66258;53.170;-2.240;2023-05-10T08:51:50;99948.22;;;21.05;100.00
77240;BME280;66258;53.170;-2.240;2023-05-10T08:54:19;99949.88;;;21.46;100.00
77240;BME280;66258;53.170;-2.240;2023-05-10T08:56:48;99952.19;;;21.66;100.00
77240;BME280;66258;53.170;-2.240;2023-05-10T08:59:16;99958.03;;;21.86;99.33
77240;BME280;66258;53.170;-2.240;2023-05-10T09:01:46;99959.19;;;21.57;99.41
77240;BME280;66258;53.170;-2.240;2023-05-10T09:04:13;99954.16;;;21.54;100.00
77240;BME280;66258;53.170;-2.240;2023-05-10T09:06:41;99951.78;;;21.17;100.00
77240;BME280;66258;53.170;-2.240;2023-05-10T09:09:10;99954.22;;;21.42;100.00
77240;BME280;66258;53.170;-2.240;2023-05-10T09:11:38;99962.22;;;21.89;100.00
77240;BME280;66258;53.170;-2.240;2023-05-10T09:14:06;99961.88;;;21.85;96.82
77240;BME280;66258;53.170;-2.240;2023-05-10T09:16:33;99953.25;;;21.65;97.58
77240;BME280;66258;53.170;-2.240;2023-05-10T09:19:02;99957.91;;;21.93;97.95
77240;BME280;66258;53.170;-2.240;2023-05-10T09:21:30;99953.56;;;21.80;96.02
77240;BME280;66258;53.170;-2.240;2023-05-10T09:24:04;99955.31;;;22.03;95.21
77240;BME280;66258;53.170;-2.240;2023-05-10T09:26:32;99957.53;;;22.18;93.55
77240;BME280;66258;53.170;-2.240;2023-05-10T09:29:00;99966.22;;;22.82;92.23
77240;BME280;66258;53.170;-2.240;2023-05-10T09:31:45;99960.69;;;23.74;87.84
77240;BME280;66258;53.170;-2.240;2023-05-10T09:34:29;99962.84;;;24.68;85.93
77240;BME280;66258;53.170;-2.240;2023-05-10T09:36:59;99975.91;;;25.25;78.64
77240;BME280;66258;53.170;-2.240;2023-05-10T09:39:33;99970.66;;;25.28;76.10
77240;BME280;66258;53.170;-2.240;2023-05-10T09:42:03;99963.16;;;24.77;77.48
77240;BME280;66258;53.170;-2.240;2023-05-10T09:44:31;99959.44;;;24.51;77.47
77240;BME280;66258;53.170;-2.240;2023-05-10T09:46:58;99958.03;;;23.57;80.32
77240;BME280;66258;53.170;-2.240;2023-05-10T09:49:27;99955.81;;;22.89;85.34
77240;BME280;66258;53.170;-2.240;2023-05-10T09:52:03;99956.34;;;22.69;87.28
77240;BME280;66258;53.170;-2.240;2023-05-10T09:54:31;99940.69;;;22.75;87.89
77240;BME280;66258;53.170;-2.240;2023-05-10T09:56:59;99954.25;;;22.38;90.26
77240;BME280;66258;53.170;-2.240;2023-05-10T09:59:27;99946.94;;;23.30;91.94
77240;BME280;66258;53.170;-2.240;2023-05-10T10:01:56;99955.94;;;23.70;89.52
77240;BME280;66258;53.170;-2.240;2023-05-10T10:04:29;99957.03;;;24.64;84.84
77240;BME280;66258;53.170;-2.240;2023-05-10T10:07:01;99948.72;;;25.17;78.70
77240;BME280;66258;53.170;-2.240;2023-05-10T10:09:28;99957.31;;;25.20;75.00
77240;BME280;66258;53.170;-2.240;2023-05-10T10:11:56;99956.25;;;24.79;73.69
77240;BME280;66258;53.170;-2.240;2023-05-10T10:14:24;99953.38;;;24.22;75.50
77240;BME280;66258;53.170;-2.240;2023-05-10T10:16:52;99945.38;;;23.61;76.95
77240;BME280;66258;53.170;-2.240;2023-05-10T10:19:36;99953.38;;;23.36;79.56
77240;BME280;66258;53.170;-2.240;2023-05-10T10:22:05;99953.53;;;23.24;83.06
77240;BME280;66258;53.170;-2.240;2023-05-10T10:24:33;99946.44;;;22.90;85.93
77240;BME280;66258;53.170;-2.240;2023-05-10T10:27:05;99940.56;;;22.09;91.66
77240;BME280;66258;53.170;-2.240;2023-05-10T10:29:38;99952.13;;;21.61;99.83
77240;BME280;66258;53.170;-2.240;2023-05-10T10:32:12;99949.03;;;21.46;100.00
77240;BME280;66258;53.170;-2.240;2023-05-10T10:34:47;99945.34;;;21.69;100.00
77240;BME280;66258;53.170;-2.240;2023-05-10T10:37:15;99943.19;;;21.14;100.00
77240;BME280;66258;53.170;-2.240;2023-05-10T10:39:42;99943.53;;;21.17;100.00
77240;BME280;66258;53.170;-2.240;2023-05-10T10:42:11;99944.63;;;21.45;100.00
77240;BME280;66258;53.170;-2.240;2023-05-10T10:44:39;99947.97;;;21.92;100.00
77240;BME280;66258;53.170;-2.240;2023-05-10T10:47:20;99946.69;;;22.50;100.00
77240;BME280;66258;53.170;-2.240;2023-05-10T10:49:51;99948.09;;;23.35;100.00
77240;BME280;66258;53.170;-2.240;2023-05-10T10:52:31;99950.78;;;23.29;100.00
77240;BME280;66258;53.170;-2.240;2023-05-10T10:55:02;99942.56;;;22.69;100.00
77240;BME280;66258;53.170;-2.240;2023-05-10T10:57:33;99939.13;;;21.45;100.00
77240;BME280;66258;53.170;-2.240;2023-05-10T11:00:23;99934.75;;;20.92;100.00
77240;BME280;66258;53.170;-2.240;2023-05-10T11:02:51;99928.97;;;20.53;100.00
77240;BME280;66258;53.170;-2.240;2023-05-10T11:05:37;99932.78;;;20.29;100.00
77240;BME280;66258;53.170;-2.240;2023-05-10T11:08:10;99930.84;;;20.18;100.00
77240;BME280;66258;53.170;-2.240;2023-05-10T11:10:38;99927.38;;;20.69;100.00
77240;BME280;66258;53.170;-2.240;2023-05-10T11:13:07;99924.19;;;21.01;100.00
77240;BME280;66258;53.170;-2.240;2023-05-10T11:15:35;99921.63;;;21.22;100.00
77240;BME280;66258;53.170;-2.240;2023-05-10T11:18:20;99918.75;;;21.46;100.00
77240;BME280;66258;53.170;-2.240;2023-05-10T11:20:52;99913.47;;;22.40;100.00
77240;BME280;66258;53.170;-2.240;2023-05-10T11:23:20;99932.47;;;23.45;100.00
77240;BME280;66258;53.170;-2.240;2023-05-10T11:25:48;99933.44;;;24.20;100.00
77240;BME280;66258;53.170;-2.240;2023-05-10T11:28:17;99943.09;;;24.96;98.34
77240;BME280;66258;53.170;-2.240;2023-05-10T11:30:45;99948.47;;;25.28;95.15
77240;BME280;66258;53.170;-2.240;2023-05-10T11:33:17;99938.84;;;24.84;87.13
77240;BME280;66258;53.170;-2.240;2023-05-10T11:35:45;99932.72;;;24.72;87.50
77240;BME280;66258;53.170;-2.240;2023-05-10T11:38:15;99942.16;;;24.02;84.35
77240;BME280;66258;53.170;-2.240;2023-05-10T11:40:43;99939.13;;;23.22;85.53
77240;BME280;66258;53.170;-2.240;2023-05-10T11:43:10;99941.75;;;22.90;88.28
77240;BME280;66258;53.170;-2.240;2023-05-10T11:45:40;99945.50;;;22.62;90.35
77240;BME280;66258;53.170;-2.240;2023-05-10T11:48:08;99942.16;;;22.77;90.36
77240;BME280;66258;53.170;-2.240;2023-05-10T11:50:36;99943.38;;;22.70;91.99
77240;BME280;66258;53.170;-2.240;2023-05-10T11:53:04;99941.06;;;22.06;95.10
77240;BME280;66258;53.170;-2.240;2023-05-10T11:55:34;99948.78;;;21.19;100.00
77240;BME280;66258;53.170;-2.240;2023-05-10T11:58:01;99943.72;;;20.87;100.00
77240;BME280;66258;53.170;-2.240;2023-05-10T12:00:30;99943.16;;;20.74;100.00
77240;BME280;66258;53.170;-2.240;2023-05-10T12:03:00;99941.25;;;20.74;100.00
77240;BME280;66258;53.170;-2.240;2023-05-10T12:05:32;99938.28;;;20.29;100.00
77240;BME280;66258;53.170;-2.240;2023-05-10T12:08:14;99936.94;;;20.20;100.00
77240;BME280;66258;53.170;-2.240;2023-05-10T12:10:44;99939.88;;;20.37;100.00
77240;BME280;66258;53.170;-2.240;2023-05-10T12:13:12;99931.47;;;20.43;100.00
77240;BME280;66258;53.170;-2.240;2023-05-10T12:15:41;99931.56;;;20.60;100.00
77240;BME280;66258;53.170;-2.240;2023-05-10T12:18:12;99939.53;;;20.97;100.00
77240;BME280;66258;53.170;-2.240;2023-05-10T12:20:40;99937.06;;;21.23;100.00
77240;BME280;66258;53.170;-2.240;2023-05-10T12:23:11;99944.34;;;21.58;100.00
77240;BME280;66258;53.170;-2.240;2023-05-10T12:25:43;99945.59;;;21.84;100.00
77240;BME280;66258;53.170;-2.240;2023-05-10T12:28:11;99938.50;;;21.88;100.00
77240;BME280;66258;53.170;-2.240;2023-05-10T12:30:39;99949.97;;;21.80;100.00
77240;BME280;66258;53.170;-2.240;2023-05-10T12:33:10;99948.59;;;21.66;100.00
77240;BME280;66258;53.170;-2.240;2023-05-10T12:35:45;99954.88;;;21.78;100.00
77240;BME280;66258;53.170;-2.240;2023-05-10T12:38:25;99953.38;;;21.87;100.00
77240;BME280;66258;53.170;-2.240;2023-05-10T12:40:55;99954.66;;;21.96;100.00
77240;BME280;66258;53.170;-2.240;2023-05-10T12:43:22;99955.00;;;22.00;100.00
77240;BME280;66258;53.170;-2.240;2023-05-10T12:45:50;99961.44;;;22.05;100.00
77240;BME280;66258;53.170;-2.240;2023-05-10T12:48:18;99957.75;;;22.00;100.00
77240;BME280;66258;53.170;-2.240;2023-05-10T12:50:46;99955.22;;;21.81;100.00
77240;BME280;66258;53.170;-2.240;2023-05-10T12:53:17;99973.75;;;21.86;100.00
77240;BME280;66258;53.170;-2.240;2023-05-10T12:55:46;99974.31;;;21.71;100.00
77240;BME280;66258;53.170;-2.240;2023-05-10T12:58:17;99972.06;;;21.68;100.00